sensor_id;sensor_type;location;lat;lon;timestamp;P1;durP1;ratioP1;P2;durP2;ratioP2
43646;SDS011;56152;49.996;18.980;2022-09-09T00:01:25;7.40;;;4.93;;
43646;SDS011;56152;49.996;18.980;2022-09-09T00:06:42;6.15;;;4.30;;
43646;SDS011;56152;49.996;18.980;2022-09-09T00:11:51;6.88;;;4.80;;
43646;SDS011;56152;49.996;18.980;2022-09-09T00:16:59;5.30;;;4.20;;
43646;SDS011;56152;49.996;18.980;2022-09-09T00:22:16;4.65;;;3.92;;
43646;SDS011;56152;49.996;18.980;2022-09-09T00:27:22;5.85;;;3.90;;
43646;SDS011;56152;49.996;18.980;2022-09-09T00:32:30;6.95;;;4.00;;
43646;SDS011;56152;49.996;18.980;2022-09-09T00:37:37;4.93;;;4.03;;
43646;SDS011;56152;49.996;18.980;2022-09-09T00:42:40;7.05;;;4.10;;
43646;SDS011;56152;49.996;18.980;2022-09-09T00:47:44;4.90;;;3.67;;
43646;SDS011;56152;49.996;18.980;2022-09-09T00:52:50;4.50;;;3.60;;
43646;SDS011;56152;49.996;18.980;2022-09-09T00:58:01;6.72;;;3.97;;
43646;SDS011;56152;49.996;18.980;2022-09-09T01:08:47;4.32;;;3.20;;
43646;SDS011;56152;49.996;18.980;2022-09-09T01:14:05;4.82;;;4.05;;
43646;SDS011;56152;49.996;18.980;2022-09-09T01:19:17;6.07;;;3.50;;
43646;SDS011;56152;49.996;18.980;2022-09-09T01:24:27;3.08;;;2.80;;
43646;SDS011;56152;49.996;18.980;2022-09-09T01:29:37;4.18;;;3.35;;
43646;SDS011;56152;49.996;18.980;2022-09-09T01:34:40;5.07;;;3.58;;
43646;SDS011;56152;49.996;18.980;2022-09-09T01:39:43;4.15;;;3.15;;
43646;SDS011;56152;49.996;18.980;2022-09-09T01:44:47;4.28;;;3.25;;
43646;SDS011;56152;49.996;18.980;2022-09-09T01:49:49;6.95;;;3.78;;
43646;SDS011;56152;49.996;18.980;2022-09-09T01:54:51;3.60;;;3.17;;
43646;SDS011;56152;49.996;18.980;2022-09-09T02:00:00;4.40;;;3.97;;
43646;SDS011;56152;49.996;18.980;2022-09-09T02:05:10;4.57;;;3.28;;
43646;SDS011;56152;49.996;18.980;2022-09-09T02:10:20;9.68;;;3.92;;
43646;SDS011;56152;49.996;18.980;2022-09-09T02:15:30;5.43;;;4.10;;
43646;SDS011;56152;49.996;18.980;2022-09-09T02:20:37;5.50;;;3.80;;
43646;SDS011;56152;49.996;18.980;2022-09-09T02:25:41;5.53;;;3.72;;
43646;SDS011;56152;49.996;18.980;2022-09-09T02:30:47;5.53;;;3.60;;
43646;SDS011;56152;49.996;18.980;2022-09-09T02:35:55;7.10;;;3.93;;
43646;SDS011;56152;49.996;18.980;2022-09-09T02:41:03;3.92;;;3.50;;
43646;SDS011;56152;49.996;18.980;2022-09-09T02:46:12;5.65;;;4.50;;
43646;SDS011;56152;49.996;18.980;2022-09-09T02:51:36;7.15;;;4.00;;
43646;SDS011;56152;49.996;18.980;2022-09-09T02:56:47;5.22;;;3.83;;
43646;SDS011;56152;49.996;18.980;2022-09-09T03:01:55;4.78;;;4.13;;
43646;SDS011;56152;49.996;18.980;2022-09-09T03:06:57;5.05;;;3.80;;
43646;SDS011;56152;49.996;18.980;2022-09-09T03:12:00;4.68;;;3.72;;
43646;SDS011;56152;49.996;18.980;2022-09-09T03:17:08;6.10;;;4.43;;
43646;SDS011;56152;49.996;18.980;2022-09-09T03:22:10;5.32;;;4.20;;
43646;SDS011;56152;49.996;18.980;2022-09-09T03:27:13;4.45;;;3.90;;
43646;SDS011;56152;49.996;18.980;2022-09-09T03:32:17;5.30;;;4.03;;
43646;SDS011;56152;49.996;18.980;2022-09-09T03:37:25;7.22;;;4.43;;
43646;SDS011;56152;49.996;18.980;2022-09-09T03:42:27;5.68;;;3.97;;
43646;SDS011;56152;49.996;18.980;2022-09-09T03:47:30;7.88;;;4.88;;
43646;SDS011;56152;49.996;18.980;2022-09-09T03:52:33;7.18;;;5.40;;
43646;SDS011;56152;49.996;18.980;2022-09-09T03:57:35;5.35;;;4.30;;
43646;SDS011;56152;49.996;18.980;2022-09-09T04:02:39;9.43;;;4.70;;
43646;SDS011;56152;49.996;18.980;2022-09-09T04:07:40;4.97;;;4.20;;
43646;SDS011;56152;49.996;18.980;2022-09-09T04:12:42;8.77;;;5.13;;
43646;SDS011;56152;49.996;18.980;2022-09-09T04:17:48;4.55;;;3.78;;
43646;SDS011;56152;49.996;18.980;2022-09-09T04:22:50;6.57;;;4.60;;
43646;SDS011;56152;49.996;18.980;2022-09-09T04:27:53;4.65;;;3.80;;
43646;SDS011;56152;49.996;18.980;2022-09-09T04:32:58;3.63;;;3.20;;
43646;SDS011;56152;49.996;18.980;2022-09-09T04:37:59;4.75;;;3.85;;
43646;SDS011;56152;49.996;18.980;2022-09-09T04:43:02;6.13;;;3.67;;
43646;SDS011;56152;49.996;18.980;2022-09-09T04:48:09;4.70;;;3.30;;
43646;SDS011;56152;49.996;18.980;2022-09-09T04:53:11;4.18;;;3.20;;
43646;SDS011;56152;49.996;18.980;2022-09-09T04:58:13;2.90;;;2.60;;
43646;SDS011;56152;49.996;18.980;2022-09-09T05:03:17;4.40;;;2.88;;
43646;SDS011;56152;49.996;18.980;2022-09-09T05:08:19;5.03;;;3.17;;
43646;SDS011;56152;49.996;18.980;2022-09-09T05:13:21;4.15;;;2.95;;
43646;SDS011;56152;49.996;18.980;2022-09-09T05:18:25;3.50;;;3.20;;
43646;SDS011;56152;49.996;18.980;2022-09-09T05:23:28;7.72;;;3.08;;
43646;SDS011;56152;49.996;18.980;2022-09-09T05:28:38;6.03;;;3.40;;
43646;SDS011;56152;49.996;18.980;2022-09-09T05:33:42;4.43;;;3.20;;
43646;SDS011;56152;49.996;18.980;2022-09-09T05:38:46;3.92;;;3.47;;
43646;SDS011;56152;49.996;18.980;2022-09-09T05:43:49;4.10;;;3.42;;
43646;SDS011;56152;49.996;18.980;2022-09-09T05:48:52;4.85;;;3.67;;
43646;SDS011;56152;49.996;18.980;2022-09-09T05:53:54;3.40;;;3.10;;
43646;SDS011;56152;49.996;18.980;2022-09-09T05:59:02;4.38;;;3.45;;
43646;SDS011;56152;49.996;18.980;2022-09-09T06:04:12;4.70;;;3.30;;
43646;SDS011;56152;49.996;18.980;2022-09-09T06:09:15;3.17;;;2.88;;
43646;SDS011;56152;49.996;18.980;2022-09-09T06:14:17;2.70;;;2.47;;
43646;SDS011;56152;49.996;18.980;2022-09-09T06:19:23;5.45;;;2.55;;
43646;SDS011;56152;49.996;18.980;2022-09-09T06:24:29;4.63;;;2.55;;
43646;SDS011;56152;49.996;18.980;2022-09-09T06:29:32;2.40;;;2.20;;
43646;SDS011;56152;49.996;18.980;2022-09-09T06:34:37;3.05;;;2.00;;
43646;SDS011;56152;49.996;18.980;2022-09-09T06:39:38;2.50;;;2.30;;
43646;SDS011;56152;49.996;18.980;2022-09-09T06:44:43;3.40;;;2.50;;
43646;SDS011;56152;49.996;18.980;2022-09-09T06:49:46;8.68;;;2.70;;
43646;SDS011;56152;49.996;18.980;2022-09-09T06:54:50;4.93;;;2.50;;
43646;SDS011;56152;49.996;18.980;2022-09-09T06:59:54;2.70;;;2.50;;
43646;SDS011;56152;49.996;18.980;2022-09-09T07:04:58;2.58;;;2.30;;
43646;SDS011;56152;49.996;18.980;2022-09-09T07:10:00;2.20;;;2.00;;
43646;SDS011;56152;49.996;18.980;2022-09-09T07:15:01;3.22;;;2.30;;
43646;SDS011;56152;49.996;18.980;2022-09-09T07:20:06;2.15;;;1.95;;
43646;SDS011;56152;49.996;18.980;2022-09-09T07:25:15;2.13;;;1.98;;
43646;SDS011;56152;49.996;18.980;2022-09-09T07:30:29;2.08;;;1.88;;
43646;SDS011;56152;49.996;18.980;2022-09-09T07:35:35;4.53;;;2.15;;
43646;SDS011;56152;49.996;18.980;2022-09-09T07:40:39;1.77;;;1.60;;
43646;SDS011;56152;49.996;18.980;2022-09-09T07:45:41;3.75;;;2.05;;
43646;SDS011;56152;49.996;18.980;2022-09-09T07:50:45;2.05;;;1.42;;
43646;SDS011;56152;49.996;18.980;2022-09-09T07:55:47;3.90;;;1.88;;
43646;SDS011;56152;49.996;18.980;2022-09-09T08:00:49;1.63;;;1.52;;
43646;SDS011;56152;49.996;18.980;2022-09-09T08:05:53;1.40;;;1.30;;
43646;SDS011;56152;49.996;18.980;2022-09-09T08:11:03;1.63;;;1.52;;
43646;SDS011;56152;49.996;18.980;2022-09-09T08:16:08;1.50;;;1.40;;
43646;SDS011;56152;49.996;18.980;2022-09-09T08:21:18;5.72;;;2.13;;
43646;SDS011;56152;49.996;18.980;2022-09-09T08:26:21;4.55;;;1.23;;
43646;SDS011;56152;49.996;18.980;2022-09-09T08:31:30;1.30;;;1.20;;
43646;SDS011;56152;49.996;18.980;2022-09-09T08:36:37;1.58;;;1.20;;
43646;SDS011;56152;49.996;18.980;2022-09-09T08:47:20;1.38;;;1.27;;
43646;SDS011;56152;49.996;18.980;2022-09-09T08:52:36;21.92;;;3.78;;
43646;SDS011;56152;49.996;18.980;2022-09-09T08:57:51;3.92;;;1.33;;
43646;SDS011;56152;49.996;18.980;2022-09-09T09:03:02;4.90;;;2.13;;
43646;SDS011;56152;49.996;18.980;2022-09-09T09:08:12;13.52;;;2.97;;
43646;SDS011;56152;49.996;18.980;2022-09-09T09:13:23;3.42;;;1.42;;
43646;SDS011;56152;49.996;18.980;2022-09-09T09:18:32;34.05;;;4.28;;
43646;SDS011;56152;49.996;18.980;2022-09-09T09:23:40;2.13;;;1.00;;
43646;SDS011;56152;49.996;18.980;2022-09-09T09:28:48;2.33;;;1.20;;
43646;SDS011;56152;49.996;18.980;2022-09-09T09:33:52;2.15;;;1.10;;
43646;SDS011;56152;49.996;18.980;2022-09-09T09:39:01;2.30;;;0.93;;
43646;SDS011;56152;49.996;18.980;2022-09-09T09:44:05;17.83;;;2.35;;
43646;SDS011;56152;49.996;18.980;2022-09-09T09:49:22;1.40;;;1.30;;
43646;SDS011;56152;49.996;18.980;2022-09-09T09:54:27;0.73;;;0.73;;
43646;SDS011;56152;49.996;18.980;2022-09-09T09:59:33;1.40;;;1.15;;
43646;SDS011;56152;49.996;18.980;2022-09-09T10:04:36;1.13;;;0.93;;
43646;SDS011;56152;49.996;18.980;2022-09-09T10:09:40;4.10;;;1.00;;
43646;SDS011;56152;49.996;18.980;2022-09-09T10:14:45;1.52;;;1.27;;
43646;SDS011;56152;49.996;18.980;2022-09-09T10:19:55;2.75;;;1.33;;
43646;SDS011;56152;49.996;18.980;2022-09-09T10:25:19;4.35;;;1.60;;
43646;SDS011;56152;49.996;18.980;2022-09-09T10:30:35;22.88;;;16.27;;
43646;SDS011;56152;49.996;18.980;2022-09-09T10:35:43;3.92;;;2.80;;
43646;SDS011;56152;49.996;18.980;2022-09-09T10:46:33;2.20;;;1.70;;
43646;SDS011;56152;49.996;18.980;2022-09-09T10:51:46;1.95;;;1.15;;
43646;SDS011;56152;49.996;18.980;2022-09-09T10:56:58;2.05;;;1.33;;
43646;SDS011;56152;49.996;18.980;2022-09-09T11:02:11;8.27;;;3.20;;
43646;SDS011;56152;49.996;18.980;2022-09-09T11:07:24;2.42;;;2.17;;
43646;SDS011;56152;49.996;18.980;2022-09-09T11:12:31;3.35;;;1.73;;
43646;SDS011;56152;49.996;18.980;2022-09-09T11:17:40;4.10;;;1.40;;
43646;SDS011;56152;49.996;18.980;2022-09-09T11:22:48;2.55;;;1.23;;
43646;SDS011;56152;49.996;18.980;2022-09-09T11:28:01;3.50;;;2.90;;
43646;SDS011;56152;49.996;18.980;2022-09-09T11:39:01;2.25;;;1.50;;
43646;SDS011;56152;49.996;18.980;2022-09-09T11:44:19;1.60;;;0.93;;
43646;SDS011;56152;49.996;18.980;2022-09-09T11:49:28;1.40;;;1.30;;
43646;SDS011;56152;49.996;18.980;2022-09-09T11:54:44;1.10;;;0.90;;
43646;SDS011;56152;49.996;18.980;2022-09-09T11:59:51;1.23;;;1.02;;
43646;SDS011;56152;49.996;18.980;2022-09-09T12:04:57;1.00;;;0.85;;
43646;SDS011;56152;49.996;18.980;2022-09-09T12:10:03;1.90;;;1.20;;
43646;SDS011;56152;49.996;18.980;2022-09-09T12:15:34;2.75;;;0.88;;
43646;SDS011;56152;49.996;18.980;2022-09-09T12:20:37;1.90;;;0.95;;
43646;SDS011;56152;49.996;18.980;2022-09-09T12:25:44;1.00;;;0.90;;
43646;SDS011;56152;49.996;18.980;2022-09-09T12:30:56;1.05;;;0.95;;
43646;SDS011;56152;49.996;18.980;2022-09-09T12:36:03;2.25;;;0.88;;
43646;SDS011;56152;49.996;18.980;2022-09-09T12:41:19;1.63;;;0.80;;
43646;SDS011;56152;49.996;18.980;2022-09-09T12:46:28;0.80;;;0.80;;
43646;SDS011;56152;49.996;18.980;2022-09-09T12:51:38;1.70;;;0.95;;
43646;SDS011;56152;49.996;18.980;2022-09-09T12:56:45;1.85;;;1.27;;
43646;SDS011;56152;49.996;18.980;2022-09-09T13:01:54;2.20;;;1.13;;
43646;SDS011;56152;49.996;18.980;2022-09-09T13:07:05;7.85;;;6.00;;
43646;SDS011;56152;49.996;18.980;2022-09-09T13:12:12;5.00;;;2.40;;
43646;SDS011;56152;49.996;18.980;2022-09-09T13:17:25;8.52;;;3.33;;
43646;SDS011;56152;49.996;18.980;2022-09-09T13:22:30;7.80;;;4.00;;
43646;SDS011;56152;49.996;18.980;2022-09-09T13:27:36;11.80;;;7.63;;
43646;SDS011;56152;49.996;18.980;2022-09-09T13:32:41;7.15;;;4.50;;
43646;SDS011;56152;49.996;18.980;2022-09-09T13:37:50;3.55;;;2.40;;
43646;SDS011;56152;49.996;18.980;2022-09-09T13:42:54;2.72;;;2.22;;
43646;SDS011;56152;49.996;18.980;2022-09-09T13:48:00;2.65;;;1.63;;
43646;SDS011;56152;49.996;18.980;2022-09-09T13:53:13;4.65;;;3.00;;
43646;SDS011;56152;49.996;18.980;2022-09-09T13:58:16;8.07;;;4.93;;
43646;SDS011;56152;49.996;18.980;2022-09-09T14:03:21;2.92;;;2.20;;
43646;SDS011;56152;49.996;18.980;2022-09-09T14:08:26;1.70;;;1.60;;
43646;SDS011;56152;49.996;18.980;2022-09-09T14:13:37;3.70;;;1.70;;
43646;SDS011;56152;49.996;18.980;2022-09-09T14:18:50;5.32;;;2.08;;
43646;SDS011;56152;49.996;18.980;2022-09-09T14:23:52;3.55;;;1.90;;
43646;SDS011;56152;49.996;18.980;2022-09-09T14:28:54;2.88;;;1.90;;
43646;SDS011;56152;49.996;18.980;2022-09-09T14:34:02;4.35;;;1.90;;
43646;SDS011;56152;49.996;18.980;2022-09-09T14:39:03;2.47;;;1.60;;
43646;SDS011;56152;49.996;18.980;2022-09-09T14:44:05;10.15;;;1.80;;
43646;SDS011;56152;49.996;18.980;2022-09-09T14:49:09;1.70;;;1.42;;
43646;SDS011;56152;49.996;18.980;2022-09-09T14:54:13;3.30;;;1.70;;
43646;SDS011;56152;49.996;18.980;2022-09-09T14:59:17;3.15;;;1.63;;
43646;SDS011;56152;49.996;18.980;2022-09-09T15:04:23;2.03;;;1.60;;
43646;SDS011;56152;49.996;18.980;2022-09-09T15:09:25;2.63;;;1.52;;
43646;SDS011;56152;49.996;18.980;2022-09-09T15:14:27;4.82;;;1.55;;
43646;SDS011;56152;49.996;18.980;2022-09-09T15:19:33;2.90;;;1.55;;
43646;SDS011;56152;49.996;18.980;2022-09-09T15:24:37;5.32;;;1.75;;
43646;SDS011;56152;49.996;18.980;2022-09-09T15:29:46;4.05;;;1.80;;
43646;SDS011;56152;49.996;18.980;2022-09-09T15:34:50;5.88;;;2.08;;
43646;SDS011;56152;49.996;18.980;2022-09-09T15:39:55;2.50;;;1.63;;
43646;SDS011;56152;49.996;18.980;2022-09-09T15:44:59;5.75;;;1.70;;
43646;SDS011;56152;49.996;18.980;2022-09-09T15:50:03;2.05;;;1.50;;
43646;SDS011;56152;49.996;18.980;2022-09-09T15:55:07;4.55;;;2.40;;
43646;SDS011;56152;49.996;18.980;2022-09-09T16:00:12;4.15;;;2.33;;
43646;SDS011;56152;49.996;18.980;2022-09-09T16:05:16;5.95;;;2.72;;
43646;SDS011;56152;49.996;18.980;2022-09-09T16:10:21;14.65;;;3.00;;
43646;SDS011;56152;49.996;18.980;2022-09-09T16:15:22;7.72;;;2.97;;
43646;SDS011;56152;49.996;18.980;2022-09-09T16:20:29;7.22;;;2.80;;
43646;SDS011;56152;49.996;18.980;2022-09-09T16:25:31;3.88;;;2.63;;
43646;SDS011;56152;49.996;18.980;2022-09-09T16:30:36;6.88;;;2.75;;
43646;SDS011;56152;49.996;18.980;2022-09-09T16:35:40;8.25;;;3.60;;
43646;SDS011;56152;49.996;18.980;2022-09-09T16:40:42;8.90;;;3.00;;
43646;SDS011;56152;49.996;18.980;2022-09-09T16:45:44;6.50;;;3.65;;
43646;SDS011;56152;49.996;18.980;2022-09-09T16:50:49;7.53;;;3.53;;
43646;SDS011;56152;49.996;18.980;2022-09-09T16:55:51;9.60;;;4.68;;
43646;SDS011;56152;49.996;18.980;2022-09-09T17:00:57;6.20;;;4.10;;
43646;SDS011;56152;49.996;18.980;2022-09-09T17:06:01;6.10;;;4.00;;
43646;SDS011;56152;49.996;18.980;2022-09-09T17:11:03;8.18;;;4.25;;
43646;SDS011;56152;49.996;18.980;2022-09-09T17:16:04;9.88;;;3.53;;
43646;SDS011;56152;49.996;18.980;2022-09-09T17:21:09;8.77;;;4.53;;
43646;SDS011;56152;49.996;18.980;2022-09-09T17:26:14;12.25;;;6.20;;
43646;SDS011;56152;49.996;18.980;2022-09-09T17:31:17;11.00;;;6.38;;
43646;SDS011;56152;49.996;18.980;2022-09-09T17:36:22;14.55;;;6.43;;
43646;SDS011;56152;49.996;18.980;2022-09-09T17:41:26;11.57;;;7.68;;
43646;SDS011;56152;49.996;18.980;2022-09-09T17:46:31;15.07;;;8.38;;
43646;SDS011;56152;49.996;18.980;2022-09-09T17:51:40;14.32;;;8.85;;
43646;SDS011;56152;49.996;18.980;2022-09-09T17:56:43;20.07;;;9.37;;
43646;SDS011;56152;49.996;18.980;2022-09-09T18:01:49;16.23;;;11.30;;
43646;SDS011;56152;49.996;18.980;2022-09-09T18:06:53;24.10;;;13.43;;
43646;SDS011;56152;49.996;18.980;2022-09-09T18:11:56;14.50;;;10.77;;
43646;SDS011;56152;49.996;18.980;2022-09-09T18:16:59;19.73;;;12.82;;
43646;SDS011;56152;49.996;18.980;2022-09-09T18:22:05;28.25;;;14.23;;
43646;SDS011;56152;49.996;18.980;2022-09-09T18:27:09;18.10;;;9.30;;
43646;SDS011;56152;49.996;18.980;2022-09-09T18:32:15;17.10;;;9.43;;
43646;SDS011;56152;49.996;18.980;2022-09-09T18:37:21;19.00;;;8.73;;
43646;SDS011;56152;49.996;18.980;2022-09-09T18:42:25;13.43;;;7.38;;
43646;SDS011;56152;49.996;18.980;2022-09-09T18:47:26;12.55;;;7.80;;
43646;SDS011;56152;49.996;18.980;2022-09-09T18:52:31;14.00;;;9.07;;
43646;SDS011;56152;49.996;18.980;2022-09-09T18:57:33;17.00;;;8.70;;
43646;SDS011;56152;49.996;18.980;2022-09-09T19:02:37;17.77;;;9.45;;
43646;SDS011;56152;49.996;18.980;2022-09-09T19:07:40;21.48;;;9.43;;
43646;SDS011;56152;49.996;18.980;2022-09-09T19:12:43;18.23;;;9.60;;
43646;SDS011;56152;49.996;18.980;2022-09-09T19:17:46;12.75;;;6.95;;
43646;SDS011;56152;49.996;18.980;2022-09-09T19:22:49;14.77;;;6.00;;
43646;SDS011;56152;49.996;18.980;2022-09-09T19:27:52;12.05;;;5.63;;
43646;SDS011;56152;49.996;18.980;2022-09-09T19:32:55;8.07;;;5.43;;
43646;SDS011;56152;49.996;18.980;2022-09-09T19:38:05;16.95;;;10.07;;
43646;SDS011;56152;49.996;18.980;2022-09-09T19:43:08;11.68;;;6.88;;
43646;SDS011;56152;49.996;18.980;2022-09-09T19:48:10;12.07;;;7.22;;
43646;SDS011;56152;49.996;18.980;2022-09-09T19:53:16;12.90;;;6.80;;
43646;SDS011;56152;49.996;18.980;2022-09-09T19:58:22;13.52;;;6.40;;
43646;SDS011;56152;49.996;18.980;2022-09-09T20:03:33;13.38;;;8.55;;
43646;SDS011;56152;49.996;18.980;2022-09-09T20:08:42;13.63;;;8.38;;
43646;SDS011;56152;49.996;18.980;2022-09-09T20:13:51;11.30;;;7.32;;
43646;SDS011;56152;49.996;18.980;2022-09-09T20:18:54;15.27;;;9.25;;
43646;SDS011;56152;49.996;18.980;2022-09-09T20:24:03;14.57;;;10.15;;
43646;SDS011;56152;49.996;18.980;2022-09-09T20:29:12;21.02;;;10.85;;
43646;SDS011;56152;49.996;18.980;2022-09-09T20:34:16;18.98;;;9.77;;
43646;SDS011;56152;49.996;18.980;2022-09-09T20:39:24;15.02;;;10.13;;
43646;SDS011;56152;49.996;18.980;2022-09-09T20:44:26;17.70;;;10.60;;
43646;SDS011;56152;49.996;18.980;2022-09-09T20:49:29;17.27;;;10.45;;
43646;SDS011;56152;49.996;18.980;2022-09-09T20:54:39;16.55;;;10.63;;
43646;SDS011;56152;49.996;18.980;2022-09-09T20:59:44;12.75;;;8.40;;
43646;SDS011;56152;49.996;18.980;2022-09-09T21:04:50;12.25;;;7.82;;
43646;SDS011;56152;49.996;18.980;2022-09-09T21:09:56;12.98;;;7.47;;
43646;SDS011;56152;49.996;18.980;2022-09-09T21:15:01;15.50;;;9.88;;
43646;SDS011;56152;49.996;18.980;2022-09-09T21:20:06;14.55;;;9.00;;
43646;SDS011;56152;49.996;18.980;2022-09-09T21:25:23;16.90;;;9.65;;
43646;SDS011;56152;49.996;18.980;2022-09-09T21:30:26;19.58;;;9.82;;
43646;SDS011;56152;49.996;18.980;2022-09-09T21:35:28;23.08;;;14.00;;
43646;SDS011;56152;49.996;18.980;2022-09-09T21:40:37;20.15;;;11.45;;
43646;SDS011;56152;49.996;18.980;2022-09-09T21:45:41;14.25;;;8.60;;
43646;SDS011;56152;49.996;18.980;2022-09-09T21:50:44;13.48;;;9.43;;
43646;SDS011;56152;49.996;18.980;2022-09-09T21:55:50;15.85;;;9.88;;
43646;SDS011;56152;49.996;18.980;2022-09-09T22:00:52;15.32;;;10.35;;
43646;SDS011;56152;49.996;18.980;2022-09-09T22:05:54;19.58;;;10.82;;
43646;SDS011;56152;49.996;18.980;2022-09-09T22:11:03;24.80;;;14.80;;
43646;SDS011;56152;49.996;18.980;2022-09-09T22:16:07;23.33;;;14.35;;
43646;SDS011;56152;49.996;18.980;2022-09-09T22:21:11;22.58;;;14.52;;
43646;SDS011;56152;49.996;18.980;2022-09-09T22:26:19;20.02;;;13.05;;
43646;SDS011;56152;49.996;18.980;2022-09-09T22:31:21;24.30;;;15.02;;
43646;SDS011;56152;49.996;18.980;2022-09-09T22:36:25;18.48;;;13.05;;
43646;SDS011;56152;49.996;18.980;2022-09-09T22:41:44;21.30;;;12.38;;
43646;SDS011;56152;49.996;18.980;2022-09-09T22:46:55;21.35;;;12.77;;
43646;SDS011;56152;49.996;18.980;2022-09-09T22:51:57;19.58;;;12.15;;
43646;SDS011;56152;49.996;18.980;2022-09-09T22:57:04;17.52;;;12.27;;
43646;SDS011;56152;49.996;18.980;2022-09-09T23:02:08;20.40;;;13.50;;
43646;SDS011;56152;49.996;18.980;2022-09-09T23:07:12;18.38;;;11.68;;
43646;SDS011;56152;49.996;18.980;2022-09-09T23:12:28;15.65;;;10.27;;
43646;SDS011;56152;49.996;18.980;2022-09-09T23:17:30;16.95;;;11.38;;
43646;SDS011;56152;49.996;18.980;2022-09-09T23:22:34;15.70;;;11.35;;
43646;SDS011;56152;49.996;18.980;2022-09-09T23:32:47;15.43;;;10.80;;
43646;SDS011;56152;49.996;18.980;2022-09-09T23:37:51;11.68;;;8.75;;
43646;SDS011;56152;49.996;18.980;2022-09-09T23:42:57;11.32;;;9.30;;
43646;SDS011;56152;49.996;18.980;2022-09-09T23:47:59;11.98;;;8.77;;
43646;SDS011;56152;49.996;18.980;2022-09-09T23:53:09;13.95;;;8.15;;
43646;SDS011;56152;49.996;18.980;2022-09-09T23:58:13;11.38;;;8.43;;
